Time,TemperatureF,DewpointF,PressureIn,WindDirection,WindDirectionDegrees,WindSpeedMPH,WindSpeedGustMPH,Humidity,HourlyPrecipIn,Conditions,Clouds,dailyrainin,SolarRadiationWatts/m^2,SoftwareType,DateUTC
2013-08-29 07:11:00,73.0,49.0,-100.00,ENE,72,8.0,13.0,43,-99.99,,,0.00,6.000000,,2013-08-29 14:11:00,
2013-08-29 07:21:00,73.0,49.0,-100.00,ENE,72,8.0,13.0,43,-99.99,,,0.00,6.000000,,2013-08-29 14:21:00,
2013-08-29 07:31:00,73.0,49.0,-100.00,ENE,72,8.0,13.0,43,-99.99,,,0.00,6.000000,,2013-08-29 14:31:00,
2013-08-29 07:42:00,73.0,49.0,-100.00,ENE,72,8.0,13.0,43,-99.99,,,0.00,6.000000,,2013-08-29 14:42:00,
2013-08-29 08:43:00,78.0,49.0,-100.00,East,85,7.0,13.0,36,0.00,,,0.00,132.000000,,2013-08-29 15:43:00,
2013-08-29 09:13:00,81.0,49.0,-100.00,East,81,5.0,10.0,33,0.00,,,0.00,332.000000,,2013-08-29 16:13:00,
2013-08-29 09:24:00,81.0,49.0,-100.00,East,81,5.0,10.0,33,0.00,,,0.00,332.000000,,2013-08-29 16:24:00,
2013-08-29 09:34:00,81.0,49.0,-100.00,East,81,5.0,10.0,33,0.00,,,0.00,332.000000,,2013-08-29 16:34:00,
2013-08-29 09:43:00,81.0,49.0,-100.00,East,81,5.0,10.0,33,0.00,,,0.00,332.000000,,2013-08-29 16:43:00,
2013-08-29 10:13:00,84.0,49.0,-100.00,ENE,66,8.0,12.0,30,0.00,,,0.00,525.000000,,2013-08-29 17:13:00,
2013-08-29 10:22:00,84.0,49.0,-100.00,ENE,66,8.0,12.0,30,0.00,,,0.00,525.000000,,2013-08-29 17:22:00,
2013-08-29 10:34:00,84.0,49.0,-100.00,ENE,66,8.0,12.0,30,0.00,,,0.00,525.000000,,2013-08-29 17:34:00,
2013-08-29 10:43:00,84.0,49.0,-100.00,ENE,66,8.0,12.0,30,0.00,,,0.00,525.000000,,2013-08-29 17:43:00,
2013-08-29 11:12:00,90.0,47.0,-100.00,West,281,3.0,12.0,23,0.00,,,0.00,689.000000,,2013-08-29 18:12:00,
2013-08-29 11:21:00,90.0,47.0,-100.00,West,281,3.0,12.0,23,0.00,,,0.00,689.000000,,2013-08-29 18:21:00,
2013-08-29 11:32:00,90.0,47.0,-100.00,West,281,3.0,12.0,23,0.00,,,0.00,689.000000,,2013-08-29 18:32:00,
2013-08-29 11:42:00,90.0,47.0,-100.00,West,281,3.0,12.0,23,0.00,,,0.00,689.000000,,2013-08-29 18:42:00,
2013-08-29 12:11:00,91.0,48.0,-100.00,West,279,10.0,15.0,23,0.00,,,0.00,809.000000,,2013-08-29 19:11:00,
2013-08-29 12:22:00,91.0,48.0,-100.00,West,279,10.0,15.0,23,0.00,,,0.00,809.000000,,2013-08-29 19:22:00,
2013-08-29 12:32:00,91.0,48.0,-100.00,West,279,10.0,15.0,23,0.00,,,0.00,809.000000,,2013-08-29 19:32:00,
2013-08-29 12:42:00,91.0,48.0,-100.00,West,279,10.0,15.0,23,0.00,,,0.00,809.000000,,2013-08-29 19:42:00,
2013-08-29 13:12:00,94.0,51.0,-100.00,WNW,284,13.0,21.0,23,0.00,,,0.00,873.000000,,2013-08-29 20:12:00,
2013-08-29 13:21:00,94.0,51.0,-100.00,WNW,284,13.0,21.0,23,0.00,,,0.00,873.000000,,2013-08-29 20:21:00,
2013-08-29 13:32:00,94.0,51.0,-100.00,WNW,284,13.0,21.0,23,0.00,,,0.00,873.000000,,2013-08-29 20:32:00,
2013-08-29 13:42:00,94.0,51.0,-100.00,WNW,284,13.0,21.0,23,0.00,,,0.00,873.000000,,2013-08-29 20:42:00,
2013-08-29 14:12:00,95.0,43.0,-100.00,West,266,12.0,20.0,17,0.00,,,0.00,882.000000,,2013-08-29 21:12:00,
2013-08-29 14:22:00,95.0,43.0,-100.00,West,266,12.0,20.0,17,0.00,,,0.00,882.000000,,2013-08-29 21:22:00,
2013-08-29 14:33:00,95.0,43.0,-100.00,West,266,12.0,20.0,17,0.00,,,0.00,882.000000,,2013-08-29 21:33:00,
2013-08-29 14:43:00,95.0,43.0,-100.00,West,266,12.0,20.0,17,0.00,,,0.00,882.000000,,2013-08-29 21:43:00,
2013-08-29 15:14:00,97.0,46.0,-100.00,West,262,14.0,21.0,18,0.00,,,0.00,833.000000,,2013-08-29 22:14:00,
2013-08-29 15:24:00,97.0,46.0,-100.00,West,262,14.0,21.0,18,0.00,,,0.00,833.000000,,2013-08-29 22:24:00,
2013-08-29 15:33:00,97.0,46.0,-100.00,West,262,14.0,21.0,18,0.00,,,0.00,833.000000,,2013-08-29 22:33:00,
2013-08-29 15:43:00,97.0,46.0,-100.00,West,262,14.0,21.0,18,0.00,,,0.00,833.000000,,2013-08-29 22:43:00,
2013-08-29 16:13:00,93.0,46.0,-100.00,WSW,251,13.0,22.0,20,0.00,,,0.00,722.000000,,2013-08-29 23:13:00,
2013-08-29 16:22:00,93.0,46.0,-100.00,WSW,251,13.0,22.0,20,0.00,,,0.00,722.000000,,2013-08-29 23:22:00,
2013-08-29 16:33:00,93.0,46.0,-100.00,WSW,251,13.0,22.0,20,0.00,,,0.00,722.000000,,2013-08-29 23:33:00,
2013-08-29 16:42:00,93.0,46.0,-100.00,WSW,251,13.0,22.0,20,0.00,,,0.00,722.000000,,2013-08-29 23:42:00,
2013-08-29 17:12:00,92.0,45.0,-100.00,WSW,239,13.0,22.0,20,0.00,,,0.00,577.000000,,2013-08-30 00:12:00,
2013-08-29 17:21:00,92.0,45.0,-100.00,WSW,239,13.0,22.0,20,0.00,,,0.00,577.000000,,2013-08-30 00:21:00,
2013-08-29 17:32:00,92.0,45.0,-100.00,WSW,239,13.0,22.0,20,0.00,,,0.00,577.000000,,2013-08-30 00:32:00,
2013-08-29 17:42:00,92.0,45.0,-100.00,WSW,239,13.0,22.0,20,0.00,,,0.00,577.000000,,2013-08-30 00:42:00,
2013-08-29 18:12:00,90.0,43.0,-100.00,SW,233,20.0,26.0,20,0.00,,,0.00,384.000000,,2013-08-30 01:12:00,
2013-08-29 18:21:00,90.0,43.0,-100.00,SW,233,20.0,26.0,20,0.00,,,0.00,384.000000,,2013-08-30 01:21:00,
2013-08-29 18:32:00,90.0,43.0,-100.00,SW,233,20.0,26.0,20,0.00,,,0.00,384.000000,,2013-08-30 01:32:00,
2013-08-29 18:42:00,90.0,43.0,-100.00,SW,233,20.0,26.0,20,0.00,,,0.00,384.000000,,2013-08-30 01:42:00,
2013-08-29 19:11:00,87.0,45.0,-100.00,WSW,245,12.0,26.0,23,0.00,,,0.00,179.000000,,2013-08-30 02:11:00,
2013-08-29 19:21:00,87.0,45.0,-100.00,WSW,245,12.0,26.0,23,0.00,,,0.00,179.000000,,2013-08-30 02:21:00,
2013-08-29 19:32:00,87.0,45.0,-100.00,WSW,245,12.0,26.0,23,0.00,,,0.00,179.000000,,2013-08-30 02:32:00,
2013-08-29 19:42:00,87.0,45.0,-100.00,WSW,245,12.0,26.0,23,0.00,,,0.00,179.000000,,2013-08-30 02:42:00,
2013-08-29 20:12:00,84.0,46.0,-100.00,WSW,242,9.0,15.0,27,0.00,,,0.00,24.000000,,2013-08-30 03:12:00,
2013-08-29 20:22:00,84.0,46.0,-100.00,WSW,242,9.0,15.0,27,0.00,,,0.00,24.000000,,2013-08-30 03:22:00,
2013-08-29 20:34:00,84.0,46.0,-100.00,WSW,242,9.0,15.0,27,0.00,,,0.00,24.000000,,2013-08-30 03:34:00,
2013-08-29 20:43:00,84.0,46.0,-100.00,WSW,242,9.0,15.0,27,0.00,,,0.00,24.000000,,2013-08-30 03:43:00,
2013-08-29 21:14:00,83.0,46.0,-100.00,East,100,0.0,13.0,27,0.00,,,0.00,1.000000,,2013-08-30 04:14:00,
2013-08-29 21:24:00,83.0,46.0,-100.00,East,100,0.0,13.0,27,0.00,,,0.00,1.000000,,2013-08-30 04:24:00,
2013-08-29 21:33:00,83.0,46.0,-100.00,East,100,0.0,13.0,27,0.00,,,0.00,1.000000,,2013-08-30 04:33:00,
2013-08-29 21:44:00,83.0,46.0,-100.00,East,100,0.0,13.0,27,0.00,,,0.00,1.000000,,2013-08-30 04:44:00,
2013-08-29 22:12:00,84.0,45.0,-100.00,ESE,112,5.0,7.0,26,0.00,,,0.00,1.000000,,2013-08-30 05:12:00,
2013-08-29 22:23:00,84.0,45.0,-100.00,ESE,112,5.0,7.0,26,0.00,,,0.00,1.000000,,2013-08-30 05:23:00,
2013-08-29 22:34:00,84.0,45.0,-100.00,ESE,112,5.0,7.0,26,0.00,,,0.00,1.000000,,2013-08-30 05:34:00,
2013-08-29 22:42:00,84.0,45.0,-100.00,ESE,112,5.0,7.0,26,0.00,,,0.00,1.000000,,2013-08-30 05:42:00,
2013-08-29 23:12:00,84.0,45.0,-100.00,SE,124,6.0,8.0,26,0.00,,,0.00,1.000000,,2013-08-30 06:12:00,
2013-08-29 23:22:00,84.0,45.0,-100.00,SE,124,6.0,8.0,26,0.00,,,0.00,1.000000,,2013-08-30 06:22:00,
2013-08-29 23:32:00,84.0,45.0,-100.00,SE,124,6.0,8.0,26,0.00,,,0.00,1.000000,,2013-08-30 06:32:00,
2013-08-29 23:42:00,84.0,45.0,-100.00,SE,124,6.0,8.0,26,0.00,,,0.00,1.000000,,2013-08-30 06:42:00,